Time;durP1;ratioP1;P1;durP2;ratioP2;P2;SDS_P1;SDS_P2;PMS_P1;PMS_P2;Temp;Humidity;BMP_temperature;BMP_pressure;BME280_temperature;BME280_humidity;BME280_pressure;Samples;Min_cycle;Max_cycle;Signal;HPM_P1;HPM_P2
2023/06/24 00:00:39;;;;;;;6.10;4.93;;;;;;;;;;4940114;28;20388;-66
2023/06/24 00:03:07;;;;;;;6.07;4.50;;;;;;;;;;4938762;28;20133;-66
2023/06/24 00:05:32;;;;;;;8.00;5.35;;;;;;;;;;4938645;28;20492;-66
2023/06/24 00:08:01;;;;;;;7.90;5.65;;;;;;;;;;4937918;28;20090;-66
2023/06/24 00:10:30;;;;;;;10.85;6.90;;;;;;;;;;4940044;28;20046;-66
2023/06/24 00:12:55;;;;;;;12.75;6.38;;;;;;;;;;4939948;28;20035;-65
2023/06/24 00:15:21;;;;;;;9.07;7.22;;;;;;;;;;4939118;28;20054;-66
2023/06/24 00:17:46;;;;;;;12.65;7.30;;;;;;;;;;4939166;28;20074;-66
2023/06/24 00:20:14;;;;;;;9.98;6.60;;;;;;;;;;4940127;28;20142;-66
2023/06/24 00:22:43;;;;;;;10.43;6.25;;;;;;;;;;4939729;28;20156;-67
2023/06/24 00:25:11;;;;;;;9.82;5.22;;;;;;;;;;4937783;28;20050;-66
2023/06/24 00:27:36;;;;;;;7.50;5.13;;;;;;;;;;4938981;28;20038;-67
2023/06/24 00:30:02;;;;;;;7.22;4.82;;;;;;;;;;4940147;28;20046;-67
2023/06/24 00:32:29;;;;;;;6.38;5.35;;;;;;;;;;4939290;28;20035;-66
2023/06/24 00:34:59;;;;;;;6.50;5.25;;;;;;;;;;4938940;28;20043;-66
2023/06/24 00:37:25;;;;;;;8.90;4.70;;;;;;;;;;4938020;28;20695;-67
2023/06/24 00:39:50;;;;;;;8.05;4.68;;;;;;;;;;4939024;28;20038;-66
2023/06/24 00:42:15;;;;;;;8.20;4.97;;;;;;;;;;4938917;28;20484;-67
2023/06/24 00:44:41;;;;;;;6.72;4.50;;;;;;;;;;4940498;28;20041;-67
2023/06/24 00:47:08;;;;;;;8.20;4.85;;;;;;;;;;4938151;28;20072;-67
2023/06/24 00:49:33;;;;;;;8.02;5.13;;;;;;;;;;4938042;28;20042;-66
2023/06/24 00:52:00;;;;;;;8.13;4.63;;;;;;;;;;4939036;28;20039;-66
2023/06/24 00:54:30;;;;;;;6.05;4.80;;;;;;;;;;4939474;28;20129;-66
2023/06/24 00:56:56;;;;;;;9.13;4.95;;;;;;;;;;4939396;28;20063;-66
2023/06/24 00:59:21;;;;;;;8.57;4.65;;;;;;;;;;4937999;28;20049;-66
2023/06/24 01:01:46;;;;;;;9.63;4.50;;;;;;;;;;4937318;28;20053;-68
2023/06/24 01:04:16;;;;;;;7.18;4.60;;;;;;;;;;4937948;28;20093;-67
2023/06/24 01:06:43;;;;;;;8.13;4.80;;;;;;;;;;4902907;28;20057;-66
2023/06/24 01:09:11;;;;;;;7.90;5.03;;;;;;;;;;4939533;28;20059;-67
2023/06/24 01:11:36;;;;;;;8.77;5.03;;;;;;;;;;4939264;28;20489;-67
2023/06/24 01:14:02;;;;;;;7.22;5.32;;;;;;;;;;4917067;28;20053;-67
2023/06/24 01:16:30;;;;;;;9.13;4.85;;;;;;;;;;4939037;28;20854;-66
2023/06/24 01:19:00;;;;;;;10.70;4.68;;;;;;;;;;4938429;28;20122;-65
2023/06/24 01:21:33;;;;;;;6.68;4.78;;;;;;;;;;4941375;28;20385;-65
2023/06/24 01:24:09;;;;;;;7.03;4.25;;;;;;;;;;4942657;28;20038;-67
2023/06/24 01:26:43;;;;;;;6.57;4.38;;;;;;;;;;4943280;28;20039;-66
2023/06/24 01:29:27;;;;;;;6.63;4.65;;;;;;;;;;4942137;28;20097;-66
2023/06/24 01:32:01;;;;;;;8.77;4.93;;;;;;;;;;4941644;28;20587;-66
2023/06/24 01:34:28;;;;;;;9.55;4.82;;;;;;;;;;4943290;28;20049;-66
2023/06/24 01:37:03;;;;;;;8.27;4.90;;;;;;;;;;4941515;28;20050;-66
2023/06/24 01:39:31;;;;;;;7.97;4.85;;;;;;;;;;4941289;28;20474;-66
2023/06/24 01:42:02;;;;;;;9.25;4.22;;;;;;;;;;4918898;28;20082;-66
2023/06/24 01:44:28;;;;;;;6.38;4.32;;;;;;;;;;4941960;28;20096;-66
2023/06/24 01:46:55;;;;;;;8.57;4.90;;;;;;;;;;4941622;28;20047;-66
2023/06/24 01:49:21;;;;;;;9.48;5.13;;;;;;;;;;4942174;28;20126;-66
2023/06/24 01:51:47;;;;;;;7.72;4.95;;;;;;;;;;4941362;28;21925;-67
2023/06/24 01:54:14;;;;;;;6.82;4.88;;;;;;;;;;4942852;28;20054;-67
2023/06/24 01:56:41;;;;;;;6.57;4.50;;;;;;;;;;4943918;28;20039;-66
2023/06/24 01:59:07;;;;;;;8.55;4.50;;;;;;;;;;4942349;28;20110;-66
2023/06/24 02:01:33;;;;;;;6.25;3.85;;;;;;;;;;4941333;28;20042;-66
2023/06/24 02:03:59;;;;;;;9.23;4.95;;;;;;;;;;4920849;28;20035;-66
2023/06/24 02:06:26;;;;;;;10.02;4.65;;;;;;;;;;4924876;28;20103;-65
2023/06/24 02:08:53;;;;;;;7.75;4.95;;;;;;;;;;4941400;28;20046;-66
2023/06/24 02:11:21;;;;;;;10.68;4.78;;;;;;;;;;4941083;28;20045;-67
2023/06/24 02:13:48;;;;;;;7.28;4.50;;;;;;;;;;4940554;28;20069;-66
2023/06/24 02:16:15;;;;;;;9.38;4.57;;;;;;;;;;4941957;28;20487;-67
2023/06/24 02:18:43;;;;;;;6.75;4.10;;;;;;;;;;4941627;28;20242;-66
2023/06/24 02:21:08;;;;;;;7.88;4.60;;;;;;;;;;4923158;28;20035;-65
2023/06/24 02:23:37;;;;;;;11.38;6.10;;;;;;;;;;4939305;28;20034;-66
2023/06/24 02:26:03;;;;;;;10.77;5.45;;;;;;;;;;4940592;28;20058;-67
2023/06/24 02:28:29;;;;;;;8.25;5.03;;;;;;;;;;4941124;28;20161;-67
2023/06/24 02:30:54;;;;;;;9.23;5.13;;;;;;;;;;4941121;28;20038;-66
2023/06/24 02:33:20;;;;;;;7.72;5.13;;;;;;;;;;4941982;28;20483;-67
2023/06/24 02:35:46;;;;;;;10.13;4.90;;;;;;;;;;4941618;28;20031;-66
2023/06/24 02:38:11;;;;;;;9.75;4.75;;;;;;;;;;4935816;28;20117;-67
2023/06/24 02:40:36;;;;;;;7.80;4.45;;;;;;;;;;4941561;28;20043;-66
2023/06/24 02:43:01;;;;;;;8.45;4.88;;;;;;;;;;4941990;28;22408;-67
2023/06/24 02:45:27;;;;;;;8.35;5.05;;;;;;;;;;4942572;28;20031;-65
2023/06/24 02:47:53;;;;;;;10.73;5.20;;;;;;;;;;4920847;28;20414;-67
2023/06/24 02:50:19;;;;;;;11.55;5.72;;;;;;;;;;4942388;28;20131;-67
2023/06/24 02:52:45;;;;;;;12.10;5.78;;;;;;;;;;4924474;28;20031;-67
2023/06/24 02:55:11;;;;;;;13.18;6.07;;;;;;;;;;4941846;28;20153;-67
2023/06/24 02:57:40;;;;;;;10.48;5.70;;;;;;;;;;4941004;28;20881;-66
2023/06/24 03:00:09;;;;;;;14.80;6.05;;;;;;;;;;4918598;28;20050;-66
2023/06/24 03:02:34;;;;;;;12.63;5.53;;;;;;;;;;4924142;28;20038;-65
2023/06/24 03:05:01;;;;;;;10.68;5.28;;;;;;;;;;4941491;28;20038;-67
2023/06/24 03:07:26;;;;;;;9.27;4.68;;;;;;;;;;4933652;28;20039;-67
2023/06/24 03:09:52;;;;;;;12.45;5.00;;;;;;;;;;4941026;28;20635;-67
2023/06/24 03:12:17;;;;;;;9.20;5.05;;;;;;;;;;4939335;28;20149;-66
2023/06/24 03:14:42;;;;;;;6.90;4.40;;;;;;;;;;4935678;28;20053;-67
2023/06/24 03:17:08;;;;;;;8.60;4.60;;;;;;;;;;4918403;28;20074;-68
2023/06/24 03:19:33;;;;;;;7.03;4.13;;;;;;;;;;4940235;28;20039;-68
2023/06/24 03:21:58;;;;;;;8.65;4.32;;;;;;;;;;4941061;28;20641;-68
2023/06/24 03:24:24;;;;;;;7.63;4.20;;;;;;;;;;4941764;28;20117;-67
2023/06/24 03:26:55;;;;;;;10.35;4.50;;;;;;;;;;4940877;28;20766;-67
2023/06/24 03:29:21;;;;;;;7.97;4.45;;;;;;;;;;4920016;28;20519;-67
2023/06/24 03:31:46;;;;;;;9.27;4.63;;;;;;;;;;4939889;28;20050;-67
2023/06/24 03:34:13;;;;;;;8.05;4.40;;;;;;;;;;4939948;28;20046;-67
2023/06/24 03:36:38;;;;;;;8.55;4.65;;;;;;;;;;4939831;28;20351;-67
2023/06/24 03:39:04;;;;;;;7.68;4.07;;;;;;;;;;4939903;28;20039;-67
2023/06/24 03:41:29;;;;;;;9.20;4.93;;;;;;;;;;4922296;28;20047;-66
2023/06/24 03:43:57;;;;;;;9.15;4.40;;;;;;;;;;4939724;28;20066;-67
2023/06/24 03:46:22;;;;;;;11.00;5.50;;;;;;;;;;4939052;28;20100;-65
2023/06/24 03:48:50;;;;;;;9.93;5.55;;;;;;;;;;4939183;28;20035;-66
2023/06/24 03:51:15;;;;;;;10.93;5.30;;;;;;;;;;4938626;28;20444;-66
2023/06/24 03:53:40;;;;;;;7.30;4.88;;;;;;;;;;4919071;28;20125;-66
2023/06/24 03:56:06;;;;;;;7.28;5.03;;;;;;;;;;4939616;28;20073;-68
2023/06/24 03:58:31;;;;;;;11.65;4.63;;;;;;;;;;4917704;28;20054;-67
2023/06/24 04:00:59;;;;;;;10.68;4.78;;;;;;;;;;4927245;28;20039;-67
2023/06/24 04:03:27;;;;;;;8.18;4.70;;;;;;;;;;4938985;28;20067;-68
2023/06/24 04:05:56;;;;;;;9.32;4.82;;;;;;;;;;4940378;28;20031;-67
2023/06/24 04:08:22;;;;;;;9.95;5.43;;;;;;;;;;4922109;28;20493;-67
2023/06/24 04:10:47;;;;;;;10.40;5.38;;;;;;;;;;4936763;28;20047;-67
2023/06/24 04:13:12;;;;;;;9.68;5.65;;;;;;;;;;4940334;28;20062;-67
2023/06/24 04:15:37;;;;;;;11.15;5.53;;;;;;;;;;4938970;28;20046;-67
2023/06/24 04:18:03;;;;;;;9.93;5.70;;;;;;;;;;4937819;28;20042;-68
2023/06/24 04:20:28;;;;;;;10.20;5.63;;;;;;;;;;4920622;28;20539;-68
2023/06/24 04:22:54;;;;;;;9.63;5.57;;;;;;;;;;4922362;28;20035;-67
2023/06/24 04:25:19;;;;;;;10.18;5.28;;;;;;;;;;4923198;28;20132;-66
2023/06/24 04:27:44;;;;;;;12.48;5.72;;;;;;;;;;4939168;28;20110;-67
2023/06/24 04:30:10;;;;;;;10.85;5.65;;;;;;;;;;4938427;28;20118;-67
2023/06/24 04:32:35;;;;;;;11.98;5.47;;;;;;;;;;4904747;28;20130;-67
2023/06/24 04:35:00;;;;;;;10.50;5.75;;;;;;;;;;4939807;28;20724;-68
2023/06/24 04:37:26;;;;;;;8.32;4.78;;;;;;;;;;4940163;28;20045;-68
2023/06/24 04:39:51;;;;;;;9.73;5.70;;;;;;;;;;4939590;28;20755;-68
2023/06/24 04:42:16;;;;;;;8.50;5.30;;;;;;;;;;4939085;28;20047;-69
2023/06/24 04:44:44;;;;;;;9.05;5.50;;;;;;;;;;4938487;28;20031;-68
2023/06/24 04:47:09;;;;;;;9.02;5.30;;;;;;;;;;4917197;28;20534;-67
2023/06/24 04:49:35;;;;;;;13.18;5.88;;;;;;;;;;4939123;28;20065;-68
2023/06/24 04:52:02;;;;;;;10.88;5.15;;;;;;;;;;4937812;28;20444;-68
2023/06/24 04:54:28;;;;;;;7.38;4.75;;;;;;;;;;4918738;28;20047;-66
2023/06/24 04:56:55;;;;;;;10.85;5.30;;;;;;;;;;4939726;28;20062;-67
2023/06/24 04:59:23;;;;;;;8.05;5.50;;;;;;;;;;4918539;28;20042;-67
2023/06/24 05:01:48;;;;;;;9.88;5.30;;;;;;;;;;4933841;28;21010;-70
2023/06/24 05:04:14;;;;;;;11.18;5.75;;;;;;;;;;4938966;28;20035;-67
2023/06/24 05:06:41;;;;;;;10.30;5.72;;;;;;;;;;4937873;28;20042;-69
2023/06/24 05:09:06;;;;;;;11.80;6.30;;;;;;;;;;4937138;28;20039;-68
2023/06/24 05:11:32;;;;;;;10.93;5.65;;;;;;;;;;4938467;28;20066;-69
2023/06/24 05:13:58;;;;;;;13.25;5.95;;;;;;;;;;4934261;28;20053;-67
2023/06/24 05:16:23;;;;;;;9.63;5.50;;;;;;;;;;4937755;28;20042;-68
2023/06/24 05:18:49;;;;;;;11.50;5.50;;;;;;;;;;4938867;28;20066;-69
2023/06/24 05:21:14;;;;;;;13.27;5.55;;;;;;;;;;4935257;28;20073;-71
2023/06/24 05:23:40;;;;;;;11.20;5.18;;;;;;;;;;4936697;28;20111;-69
2023/06/24 05:26:07;;;;;;;7.35;4.57;;;;;;;;;;4935107;28;20272;-69
2023/06/24 05:28:33;;;;;;;8.73;4.85;;;;;;;;;;4937243;28;20046;-70
2023/06/24 05:30:58;;;;;;;8.23;4.50;;;;;;;;;;4935392;28;20036;-69
2023/06/24 05:33:23;;;;;;;9.48;4.43;;;;;;;;;;4936765;28;20043;-69
2023/06/24 05:35:50;;;;;;;7.15;4.28;;;;;;;;;;4916161;28;20031;-68
2023/06/24 05:38:15;;;;;;;9.73;4.32;;;;;;;;;;4934633;28;20508;-69
2023/06/24 05:40:40;;;;;;;5.22;3.58;;;;;;;;;;4936758;28;20042;-67
2023/06/24 05:43:06;;;;;;;7.72;3.75;;;;;;;;;;4936160;28;20039;-68
2023/06/24 05:45:31;;;;;;;9.10;4.18;;;;;;;;;;4917161;28;20038;-67
2023/06/24 05:47:56;;;;;;;7.32;3.97;;;;;;;;;;4936457;28;20055;-67
2023/06/24 05:50:21;;;;;;;10.27;4.10;;;;;;;;;;4935639;28;20744;-68
2023/06/24 05:52:47;;;;;;;8.68;4.15;;;;;;;;;;4901391;28;20039;-67
2023/06/24 05:55:13;;;;;;;6.05;3.78;;;;;;;;;;4936635;28;20916;-71
2023/06/24 05:57:39;;;;;;;7.82;4.20;;;;;;;;;;4936790;28;20034;-69
2023/06/24 06:00:04;;;;;;;7.57;3.85;;;;;;;;;;4937314;28;20039;-69
2023/06/24 06:02:30;;;;;;;5.75;3.70;;;;;;;;;;4935828;28;20117;-66
2023/06/24 06:04:55;;;;;;;8.63;3.83;;;;;;;;;;4936875;28;20039;-68
2023/06/24 06:07:23;;;;;;;19.90;5.05;;;;;;;;;;4939102;28;20114;-68
2023/06/24 06:09:48;;;;;;;16.50;3.80;;;;;;;;;;4939615;28;20049;-69
2023/06/24 06:12:13;;;;;;;12.73;4.00;;;;;;;;;;4938321;28;20570;-69
2023/06/24 06:14:41;;;;;;;7.90;3.67;;;;;;;;;;4939584;28;20173;-68
2023/06/24 06:17:06;;;;;;;9.38;3.92;;;;;;;;;;4936698;28;20046;-67
2023/06/24 06:19:31;;;;;;;8.88;4.05;;;;;;;;;;4920197;28;20038;-69
2023/06/24 06:21:59;;;;;;;10.10;4.20;;;;;;;;;;4938749;28;20179;-69
2023/06/24 06:24:24;;;;;;;11.35;4.72;;;;;;;;;;4940860;28;20488;-70
2023/06/24 06:26:52;;;;;;;11.65;4.47;;;;;;;;;;4939924;28;20045;-70
2023/06/24 06:29:17;;;;;;;10.65;4.22;;;;;;;;;;4919187;28;20581;-69
2023/06/24 06:31:42;;;;;;;12.52;4.72;;;;;;;;;;4937524;28;20035;-69
2023/06/24 06:34:08;;;;;;;11.18;4.10;;;;;;;;;;4940330;28;20138;-67
2023/06/24 06:36:33;;;;;;;9.82;3.95;;;;;;;;;;4939035;28;20138;-69
2023/06/24 06:38:59;;;;;;;12.25;4.43;;;;;;;;;;4920563;28;20157;-71
2023/06/24 06:41:24;;;;;;;8.98;3.83;;;;;;;;;;4923434;28;20031;-67
2023/06/24 06:43:53;;;;;;;11.18;4.10;;;;;;;;;;4939891;28;20053;-68
2023/06/24 06:46:18;;;;;;;10.27;4.00;;;;;;;;;;4941006;28;20865;-69
2023/06/24 06:48:44;;;;;;;8.20;3.85;;;;;;;;;;4942721;28;20034;-68
2023/06/24 06:51:09;;;;;;;9.25;3.63;;;;;;;;;;4940383;28;20050;-71
2023/06/24 06:53:34;;;;;;;7.75;3.88;;;;;;;;;;4941147;28;20090;-71
2023/06/24 06:56:00;;;;;;;10.00;3.95;;;;;;;;;;4941531;28;20042;-69
2023/06/24 06:58:25;;;;;;;12.75;4.22;;;;;;;;;;4941308;28;20027;-71
2023/06/24 07:00:53;;;;;;;10.27;4.00;;;;;;;;;;4940836;28;20027;-67
2023/06/24 07:03:18;;;;;;;11.63;4.28;;;;;;;;;;4942540;28;20060;-68
2023/06/24 07:05:43;;;;;;;9.10;3.75;;;;;;;;;;4928384;28;20046;-69
2023/06/24 07:08:11;;;;;;;11.20;4.65;;;;;;;;;;4942386;28;20041;-68
2023/06/24 07:10:36;;;;;;;11.88;4.85;;;;;;;;;;4940369;28;20106;-69
2023/06/24 07:13:01;;;;;;;10.75;4.20;;;;;;;;;;4909680;28;20035;-68
2023/06/24 07:15:27;;;;;;;11.35;4.90;;;;;;;;;;4939268;28;20070;-67
2023/06/24 07:17:53;;;;;;;12.23;4.95;;;;;;;;;;4941099;28;20045;-67
2023/06/24 07:20:18;;;;;;;10.57;4.55;;;;;;;;;;4940890;28;20038;-70
2023/06/24 07:22:44;;;;;;;8.15;4.35;;;;;;;;;;4940020;28;20053;-67
2023/06/24 07:25:09;;;;;;;11.48;4.50;;;;;;;;;;4919137;28;20035;-70
2023/06/24 07:27:34;;;;;;;9.85;4.30;;;;;;;;;;4941298;28;20086;-72
2023/06/24 07:30:00;;;;;;;8.95;4.80;;;;;;;;;;4939742;28;20067;-70
2023/06/24 07:32:27;;;;;;;13.93;4.45;;;;;;;;;;4939020;28;20043;-67
2023/06/24 07:34:53;;;;;;;12.63;4.40;;;;;;;;;;4940706;28;20400;-68
2023/06/24 07:37:18;;;;;;;10.15;4.20;;;;;;;;;;4921670;28;20050;-68
2023/06/24 07:39:43;;;;;;;14.18;4.57;;;;;;;;;;4917654;28;20034;-69
2023/06/24 07:42:08;;;;;;;13.32;4.50;;;;;;;;;;4919127;28;20039;-67
2023/06/24 07:44:36;;;;;;;9.38;3.83;;;;;;;;;;4940306;28;20162;-69
2023/06/24 07:47:01;;;;;;;7.75;4.15;;;;;;;;;;4940482;28;20050;-65
2023/06/24 07:49:27;;;;;;;10.20;4.32;;;;;;;;;;4939829;28;20090;-69
2023/06/24 07:51:52;;;;;;;13.38;4.40;;;;;;;;;;4941019;28;20038;-71
2023/06/24 07:54:17;;;;;;;12.10;4.55;;;;;;;;;;4938448;28;20051;-71
2023/06/24 07:56:43;;;;;;;10.90;4.88;;;;;;;;;;4941284;28;20663;-70
2023/06/24 07:59:08;;;;;;;10.30;4.25;;;;;;;;;;4942169;28;20030;-70
2023/06/24 08:01:35;;;;;;;10.07;4.65;;;;;;;;;;4920862;28;20048;-70
2023/06/24 08:04:00;;;;;;;10.60;4.63;;;;;;;;;;4937788;28;20040;-67
2023/06/24 08:06:28;;;;;;;8.18;4.32;;;;;;;;;;4937412;28;20039;-71
2023/06/24 08:08:54;;;;;;;10.55;4.30;;;;;;;;;;4938381;28;20104;-74
2023/06/24 08:11:21;;;;;;;12.13;4.85;;;;;;;;;;4937276;28;20043;-74
2023/06/24 08:13:49;;;;;;;11.23;4.38;;;;;;;;;;4919874;28;20030;-68
2023/06/24 08:16:17;;;;;;;11.23;5.00;;;;;;;;;;4937744;28;22368;-68
2023/06/24 08:18:43;;;;;;;8.45;4.20;;;;;;;;;;4918811;28;20568;-67
2023/06/24 08:21:09;;;;;;;9.57;4.88;;;;;;;;;;4937997;28;20032;-70
2023/06/24 08:23:34;;;;;;;11.25;4.38;;;;;;;;;;4939064;28;20035;-71
2023/06/24 08:25:59;;;;;;;10.13;5.07;;;;;;;;;;4917561;28;20496;-73
2023/06/24 08:28:24;;;;;;;10.80;4.68;;;;;;;;;;4941409;28;20034;-70
2023/06/24 08:30:52;;;;;;;9.30;4.43;;;;;;;;;;4933654;28;20133;-73
2023/06/24 08:33:20;;;;;;;12.63;4.72;;;;;;;;;;4905829;28;20155;-70
2023/06/24 08:35:45;;;;;;;15.50;4.80;;;;;;;;;;4938775;28;20482;-70
2023/06/24 08:38:11;;;;;;;13.00;4.50;;;;;;;;;;4919932;28;20038;-72
2023/06/24 08:40:39;;;;;;;9.75;4.45;;;;;;;;;;4936564;28;20546;-70
2023/06/24 08:43:05;;;;;;;11.23;4.40;;;;;;;;;;4938398;28;20126;-71
2023/06/24 08:45:30;;;;;;;10.63;4.35;;;;;;;;;;4937802;28;20034;-68
2023/06/24 08:47:56;;;;;;;12.10;5.32;;;;;;;;;;4938039;28;20097;-68
2023/06/24 08:50:23;;;;;;;10.65;4.78;;;;;;;;;;4938707;28;20035;-70
2023/06/24 08:52:52;;;;;;;12.13;4.72;;;;;;;;;;4918881;28;20043;-68
2023/06/24 08:55:20;;;;;;;10.98;4.75;;;;;;;;;;4936125;28;20154;-70
2023/06/24 08:57:45;;;;;;;8.27;4.40;;;;;;;;;;4935300;28;20047;-70
2023/06/24 09:00:11;;;;;;;15.93;5.25;;;;;;;;;;4936629;28;20039;-70
2023/06/24 09:02:38;;;;;;;10.75;5.05;;;;;;;;;;4936500;28;22283;-70
2023/06/24 09:05:06;;;;;;;11.27;4.93;;;;;;;;;;4916068;28;20439;-71
2023/06/24 09:07:32;;;;;;;12.98;4.95;;;;;;;;;;4936846;28;20035;-69
2023/06/24 09:10:03;;;;;;;9.35;4.55;;;;;;;;;;4932315;28;20035;-69
2023/06/24 09:12:33;;;;;;;11.43;5.28;;;;;;;;;;4936147;28;20157;-69
2023/06/24 09:14:58;;;;;;;9.82;4.80;;;;;;;;;;4917099;28;20702;-70
2023/06/24 09:17:27;;;;;;;10.35;4.60;;;;;;;;;;4919624;28;20104;-68
2023/06/24 09:19:53;;;;;;;10.30;4.93;;;;;;;;;;4917775;28;20035;-69
2023/06/24 09:22:18;;;;;;;17.63;5.32;;;;;;;;;;4936644;28;20097;-68
2023/06/24 09:24:47;;;;;;;13.85;5.47;;;;;;;;;;4938888;28;20035;-68
2023/06/24 09:27:16;;;;;;;14.10;5.57;;;;;;;;;;4939567;28;20042;-68
2023/06/24 09:29:42;;;;;;;12.85;5.38;;;;;;;;;;4917201;28;20063;-68
2023/06/24 09:32:08;;;;;;;24.63;7.47;;;;;;;;;;4937714;28;20050;-71
2023/06/24 09:34:36;;;;;;;12.77;5.38;;;;;;;;;;4939128;28;20054;-70
2023/06/24 09:37:01;;;;;;;17.40;6.30;;;;;;;;;;4938679;28;20038;-69
2023/06/24 09:39:30;;;;;;;14.88;5.60;;;;;;;;;;4939752;28;20035;-70
2023/06/24 09:41:56;;;;;;;11.80;4.82;;;;;;;;;;4924072;28;20039;-69
2023/06/24 09:44:24;;;;;;;15.15;5.45;;;;;;;;;;4941621;28;20578;-71
2023/06/24 09:46:50;;;;;;;14.10;5.32;;;;;;;;;;4918738;28;20051;-71
2023/06/24 09:49:15;;;;;;;15.90;5.50;;;;;;;;;;4939658;28;20050;-70
2023/06/24 09:51:47;;;;;;;57.15;9.57;;;;;;;;;;4930404;28;20042;-70
2023/06/24 09:54:15;;;;;;;21.73;6.47;;;;;;;;;;4909833;28;20399;-72
2023/06/24 09:56:45;;;;;;;11.68;5.13;;;;;;;;;;4916661;28;20920;-72
2023/06/24 09:59:13;;;;;;;40.47;9.07;;;;;;;;;;4937531;28;20523;-71
2023/06/24 10:01:40;;;;;;;16.60;5.47;;;;;;;;;;4907235;28;20031;-70
2023/06/24 10:04:09;;;;;;;23.77;5.95;;;;;;;;;;4923226;28;20045;-71
2023/06/24 10:06:34;;;;;;;75.93;12.90;;;;;;;;;;4938432;28;20035;-70
2023/06/24 10:09:02;;;;;;;23.25;7.30;;;;;;;;;;4941606;28;20852;-71
2023/06/24 10:11:28;;;;;;;30.58;7.88;;;;;;;;;;4939301;28;20030;-70
2023/06/24 10:13:54;;;;;;;14.27;5.43;;;;;;;;;;4934797;28;20174;-69
2023/06/24 10:16:20;;;;;;;11.90;5.03;;;;;;;;;;4937247;28;20444;-73
2023/06/24 10:18:46;;;;;;;25.17;7.15;;;;;;;;;;4913344;28;20034;-72
2023/06/24 10:21:11;;;;;;;30.75;7.10;;;;;;;;;;4921011;28;20458;-72
2023/06/24 10:23:43;;;;;;;10.93;4.85;;;;;;;;;;4937599;28;20132;-68
2023/06/24 10:26:09;;;;;;;10.75;4.88;;;;;;;;;;4919494;28;20084;-72
2023/06/24 10:29:05;;;;;;;11.75;5.25;;;;;;;;;;4927189;28;20034;-67
2023/06/24 10:31:40;;;;;;;9.93;5.13;;;;;;;;;;4944855;28;20030;-69
2023/06/24 10:34:17;;;;;;;14.95;5.60;;;;;;;;;;4947387;28;20043;-72
2023/06/24 10:36:52;;;;;;;12.52;5.65;;;;;;;;;;4939180;28;20035;-70
2023/06/24 10:39:36;;;;;;;11.30;5.25;;;;;;;;;;4939012;28;20461;-70
2023/06/24 10:42:22;;;;;;;11.00;5.03;;;;;;;;;;4927738;28;20176;-75
2023/06/24 10:44:48;;;;;;;14.27;5.22;;;;;;;;;;4904868;28;20039;-71
2023/06/24 10:47:13;;;;;;;14.95;6.10;;;;;;;;;;4938983;28;20046;-74
2023/06/24 10:49:38;;;;;;;15.55;5.85;;;;;;;;;;4934491;28;20275;-71
2023/06/24 10:52:04;;;;;;;8.98;5.10;;;;;;;;;;4917216;28;20043;-71
2023/06/24 10:54:29;;;;;;;75.18;13.93;;;;;;;;;;4933882;28;20113;-72
2023/06/24 10:56:55;;;;;;;11.50;5.63;;;;;;;;;;4936178;28;20038;-73
2023/06/24 10:59:21;;;;;;;10.30;5.10;;;;;;;;;;4936236;28;20043;-68
2023/06/24 11:01:53;;;;;;;14.63;5.75;;;;;;;;;;4936266;28;20579;-73
2023/06/24 11:04:18;;;;;;;10.85;5.30;;;;;;;;;;4937352;28;20109;-73
2023/06/24 11:06:56;;;;;;;10.48;5.40;;;;;;;;;;4934365;28;20164;-75
2023/06/24 11:09:21;;;;;;;9.23;4.72;;;;;;;;;;4938678;28;20031;-72
2023/06/24 11:11:47;;;;;;;12.60;5.20;;;;;;;;;;4937603;28;20625;-71
2023/06/24 11:14:12;;;;;;;11.60;5.25;;;;;;;;;;4934411;28;20061;-70
2023/06/24 11:16:38;;;;;;;12.68;5.10;;;;;;;;;;4936602;28;20861;-70
2023/06/24 11:19:04;;;;;;;10.68;5.53;;;;;;;;;;4944602;28;20189;-69
2023/06/24 11:21:33;;;;;;;10.30;5.07;;;;;;;;;;4940249;28;20046;-71
2023/06/24 11:24:02;;;;;;;19.92;6.32;;;;;;;;;;4939664;28;20041;-72
2023/06/24 11:26:27;;;;;;;13.65;5.22;;;;;;;;;;4940875;28;20071;-69
2023/06/24 11:28:53;;;;;;;12.23;5.40;;;;;;;;;;4943649;28;20141;-72
2023/06/24 11:31:18;;;;;;;12.02;5.43;;;;;;;;;;4919135;28;20105;-74
2023/06/24 11:33:49;;;;;;;10.38;5.50;;;;;;;;;;4915771;28;20050;-69
2023/06/24 11:36:18;;;;;;;11.73;5.20;;;;;;;;;;4943116;28;20058;-73
2023/06/24 11:38:46;;;;;;;;;;;;;;;;;;4918604;28;20257;-71
2023/06/24 11:41:11;;;;;;;13.90;5.80;;;;;;;;;;4934746;28;19945;-71
2023/06/24 11:43:45;;;;;;;8.32;5.50;;;;;;;;;;4933705;28;20623;-71
2023/06/24 11:46:20;;;;;;;10.55;5.28;;;;;;;;;;4930086;28;20035;-71
2023/06/24 11:48:45;;;;;;;10.10;5.10;;;;;;;;;;4909983;28;20392;-72
2023/06/24 11:51:14;;;;;;;11.50;5.32;;;;;;;;;;4927739;28;20058;-70
2023/06/24 11:53:45;;;;;;;15.38;5.53;;;;;;;;;;4931533;28;20039;-71
2023/06/24 11:56:11;;;;;;;12.18;5.55;;;;;;;;;;4935144;28;20076;-70
2023/06/24 11:58:37;;;;;;;9.23;5.00;;;;;;;;;;4931168;28;20028;-71
2023/06/24 12:01:02;;;;;;;10.43;5.63;;;;;;;;;;4933073;28;20066;-70
2023/06/24 12:03:33;;;;;;;12.55;5.63;;;;;;;;;;4931677;28;20558;-71
2023/06/24 12:05:58;;;;;;;11.27;6.18;;;;;;;;;;4934890;28;20031;-70
2023/06/24 12:08:24;;;;;;;11.73;5.68;;;;;;;;;;4932382;28;20030;-69
2023/06/24 12:10:49;;;;;;;13.70;5.60;;;;;;;;;;4929674;28;20057;-70
2023/06/24 12:13:17;;;;;;;9.80;5.95;;;;;;;;;;4931545;28;20043;-70
2023/06/24 12:15:45;;;;;;;10.32;5.93;;;;;;;;;;4930376;28;20495;-66
2023/06/24 12:18:15;;;;;;;11.43;5.78;;;;;;;;;;4926281;28;20043;-64
2023/06/24 12:20:40;;;;;;;12.47;5.50;;;;;;;;;;4930794;28;20471;-64
2023/06/24 12:23:07;;;;;;;10.18;5.60;;;;;;;;;;4917476;28;20045;-64
2023/06/24 12:25:32;;;;;;;10.77;6.20;;;;;;;;;;4929784;28;20049;-63
2023/06/24 12:27:59;;;;;;;11.90;5.47;;;;;;;;;;4931531;28;20644;-63
2023/06/24 12:30:25;;;;;;;10.63;5.20;;;;;;;;;;4930867;28;20684;-64
2023/06/24 12:32:50;;;;;;;11.60;5.50;;;;;;;;;;4931180;28;20116;-62
2023/06/24 12:35:15;;;;;;;13.18;5.88;;;;;;;;;;4932779;28;20070;-64
2023/06/24 12:37:41;;;;;;;10.52;5.95;;;;;;;;;;4932421;28;20185;-63
2023/06/24 12:40:06;;;;;;;11.95;6.28;;;;;;;;;;4930250;28;20063;-66
2023/06/24 12:42:31;;;;;;;9.43;5.90;;;;;;;;;;4915052;28;20094;-61
2023/06/24 12:44:57;;;;;;;10.80;6.13;;;;;;;;;;4910638;28;20077;-66
2023/06/24 12:47:22;;;;;;;11.48;6.20;;;;;;;;;;4929011;28;20047;-63
2023/06/24 12:49:48;;;;;;;15.73;6.00;;;;;;;;;;4927152;28;20050;-65
2023/06/24 12:52:14;;;;;;;11.00;5.75;;;;;;;;;;4924918;28;20626;-63
2023/06/24 12:54:41;;;;;;;12.40;5.95;;;;;;;;;;4910204;28;20050;-65
2023/06/24 12:57:06;;;;;;;10.48;6.13;;;;;;;;;;4927018;28;20067;-65
2023/06/24 12:59:32;;;;;;;13.27;6.20;;;;;;;;;;4911649;28;20076;-64
2023/06/24 13:01:57;;;;;;;11.48;6.03;;;;;;;;;;4921628;28;20112;-64
2023/06/24 13:04:23;;;;;;;8.85;5.60;;;;;;;;;;4927245;28;20492;-64
2023/06/24 13:06:49;;;;;;;8.57;5.93;;;;;;;;;;4931287;28;20034;-65
2023/06/24 13:09:14;;;;;;;11.68;6.20;;;;;;;;;;4930379;28;20046;-64
2023/06/24 13:11:40;;;;;;;10.63;6.07;;;;;;;;;;4928595;28;20161;-66
2023/06/24 13:14:05;;;;;;;11.60;6.47;;;;;;;;;;4931245;28;20082;-66
2023/06/24 13:16:31;;;;;;;12.52;7.20;;;;;;;;;;4934904;28;20247;-64
2023/06/24 13:18:59;;;;;;;12.10;6.38;;;;;;;;;;4937223;28;20062;-65
2023/06/24 13:21:24;;;;;;;10.82;6.50;;;;;;;;;;4938007;28;20034;-65
2023/06/24 13:23:49;;;;;;;10.80;6.30;;;;;;;;;;4940594;28;20087;-63
2023/06/24 13:26:15;;;;;;;11.68;6.38;;;;;;;;;;4903971;28;20096;-63
2023/06/24 13:28:40;;;;;;;10.55;6.15;;;;;;;;;;4922415;28;20238;-62
2023/06/24 13:31:06;;;;;;;11.18;6.03;;;;;;;;;;4936429;28;20035;-64
2023/06/24 13:33:33;;;;;;;12.18;6.38;;;;;;;;;;4939968;28;20037;-64
2023/06/24 13:35:59;;;;;;;9.75;5.80;;;;;;;;;;4939224;28;21042;-64
2023/06/24 13:38:24;;;;;;;13.32;6.30;;;;;;;;;;4918259;28;20052;-66
2023/06/24 13:40:52;;;;;;;10.55;6.93;;;;;;;;;;4939032;28;20063;-64
2023/06/24 13:43:17;;;;;;;11.52;6.40;;;;;;;;;;4940384;28;20129;-64
2023/06/24 13:45:42;;;;;;;10.85;6.18;;;;;;;;;;4939118;28;20048;-65
2023/06/24 13:48:07;;;;;;;10.20;6.30;;;;;;;;;;4939932;28;20530;-63
2023/06/24 13:50:33;;;;;;;10.07;6.10;;;;;;;;;;4924458;28;20043;-65
2023/06/24 13:52:59;;;;;;;10.35;6.70;;;;;;;;;;4941846;28;20272;-64
2023/06/24 13:55:27;;;;;;;11.30;6.60;;;;;;;;;;4941419;28;20067;-63
2023/06/24 13:57:52;;;;;;;10.48;6.88;;;;;;;;;;4943327;28;20043;-64
2023/06/24 14:00:21;;;;;;;12.93;7.20;;;;;;;;;;4942394;28;20507;-63
2023/06/24 14:02:46;;;;;;;12.05;6.82;;;;;;;;;;4942375;28;20043;-62
2023/06/24 14:05:11;;;;;;;11.45;6.95;;;;;;;;;;4922504;28;20546;-63
2023/06/24 14:07:37;;;;;;;13.60;7.15;;;;;;;;;;4942418;28;20039;-64
2023/06/24 14:10:02;;;;;;;12.10;7.13;;;;;;;;;;4942428;28;20133;-63
2023/06/24 14:12:30;;;;;;;12.82;7.35;;;;;;;;;;4940332;28;21057;-63
2023/06/24 14:14:55;;;;;;;13.15;7.30;;;;;;;;;;4939664;28;20043;-64
2023/06/24 14:17:22;;;;;;;12.43;6.78;;;;;;;;;;4939352;28;20100;-66
2023/06/24 14:19:48;;;;;;;11.32;7.35;;;;;;;;;;4940102;28;20277;-64
2023/06/24 14:22:14;;;;;;;14.73;7.72;;;;;;;;;;4926253;28;20046;-64
2023/06/24 14:24:39;;;;;;;10.50;6.97;;;;;;;;;;4927037;28;20374;-63
2023/06/24 14:27:06;;;;;;;12.50;7.47;;;;;;;;;;4913182;28;20470;-64
2023/06/24 14:29:31;;;;;;;11.07;6.95;;;;;;;;;;4936921;28;20110;-63
2023/06/24 14:31:59;;;;;;;10.00;6.93;;;;;;;;;;4934400;28;20116;-62